createdAt,value
2022-09-28T00:06:53.936Z,10.99
2022-09-28T00:28:36.984Z,11.19
2022-09-28T00:50:26.238Z,10.71
2022-09-28T01:12:09.932Z,10.31
2022-09-28T01:34:00.256Z,9.96
2022-09-28T01:55:45.876Z,9.90
2022-09-28T02:17:29.064Z,9.51
2022-09-28T02:39:16.316Z,9.41
2022-09-28T03:01:15.199Z,9.38
2022-09-28T03:23:23.204Z,9.63
2022-09-28T03:45:01.676Z,9.43
2022-09-28T04:06:45.371Z,9.45
2022-09-28T04:28:47.258Z,9.54
2022-09-28T04:50:30.762Z,9.53
2022-09-28T05:12:29.076Z,9.75
2022-09-28T05:34:12.528Z,9.96
2022-09-28T05:55:59.256Z,10.02
2022-09-28T06:17:43.281Z,10.46
2022-09-28T06:39:58.533Z,11.22
2022-09-28T07:01:41.973Z,11.88
2022-09-28T07:23:49.595Z,11.72
2022-09-28T07:45:39.388Z,11.94
2022-09-28T08:07:25.069Z,16.40
2022-09-28T08:29:16.330Z,28.27
2022-09-28T08:51:14.227Z,32.55
2022-09-28T09:13:30.247Z,36.99
2022-09-28T09:35:53.353Z,37.15
2022-09-28T09:58:03.053Z,32.00
2022-09-28T10:19:59.195Z,27.11
2022-09-28T10:42:03.716Z,22.09
2022-09-28T11:03:54.959Z,17.67
2022-09-28T11:25:39.095Z,14.32
2022-09-28T11:47:54.961Z,14.07
2022-09-28T12:09:45.477Z,14.07
2022-09-28T12:31:38.588Z,13.95
2022-09-28T12:53:38.936Z,13.99
2022-09-28T13:15:41.066Z,14.35
2022-09-28T13:37:25.917Z,14.60
2022-09-28T13:59:18.751Z,14.13
2022-09-28T14:21:34.596Z,13.91
2022-09-28T14:43:26.201Z,13.78
2022-09-28T15:05:16.300Z,13.48
2022-09-28T15:26:59.917Z,13.46
2022-09-28T15:48:51.650Z,13.91
2022-09-28T16:10:36.993Z,13.52
2022-09-28T16:32:37.719Z,12.77
2022-09-28T16:54:41.557Z,12.44
2022-09-28T17:16:57.338Z,11.87
2022-09-28T17:38:31.903Z,11.37
2022-09-28T18:00:17.089Z,11.44
2022-09-28T18:22:01.208Z,11.34
2022-09-28T18:43:49.166Z,11.12
2022-09-28T19:05:34.441Z,11.26
2022-09-28T19:27:17.881Z,11.00
2022-09-28T19:49:02.593Z,10.75
2022-09-28T20:10:51.782Z,10.31
2022-09-28T20:32:35.090Z,9.98
2022-09-28T20:54:18.144Z,9.56
2022-09-28T21:16:02.874Z,9.43
2022-09-28T21:37:45.666Z,9.19
2022-09-28T21:59:28.708Z,9.07
2022-09-28T22:21:14.297Z,8.82
2022-09-28T22:42:57.359Z,8.89
2022-09-28T23:04:40.506Z,8.81
2022-09-28T23:26:26.396Z,8.72
2022-09-28T23:48:09.414Z,8.42
